Messwerte Hollywood

Temperatur

Temperatur
°C
1623823200 2.00 2.00 23
1623826800 3.00 3.00 23
1623830400 4.00 4.00 23
1623834000 5.00 5.00 23
1623837600 6.00 6.00 23
1623841200 7.00 7.00 23
1623844800 8.00 8.00 23
1623848400 9.00 9.00 24
1623852000 10.00 10.00 26
1623855600 11.00 11.00 27
1623859200 12.00 12.00 28
1623862800 13.00 13.00 23
1623866400 14.00 14.00 24
1623870000 15.00 15.00 26
1623873600 16.00 16.00
1623877200 17.00 17.00 25
1623880800 18.00 18.00 23
1623884400 19.00 19.00 23
1623888000 20.00 20.00 23
1623891600 21.00 21.00 22
1623895200 22.00 22.00 22
1623898800 23.00 23.00 22
1623902400 0.00 0.00 22
1623906000 1.00 1.00

Wir danken unserem Partner:

Aktuellste Messwerte

Wettercharakter
Wetter: Nebel
Temperatur
22 °C
Feuchtigkeit
100 %
Wind
5 km/hWindrichtung: Nordost
Luftdruck
1018 hPa
Messzeit: 17. Juni 2021, 2.00Datenquelle: METAR

Weitere Messstationen in der Nähe

Messstation Temperatur Entfernung
Miami 23 °C 12 km
Fort Lauderdale 23 °C 12 km
Fort Lauderdale 23 °C 24 km
Pompano Beach 24 °C 31 km
Miami 23 °C 31 km
Boca Raton - 44 km
Homestead 22 °C 58 km

Wind

Windrichtung Böen Mittelwind
° km/h km/h
1623823200 2.00 1.00 - 2.00 250° 5
1623826800 3.00 2.00 - 3.00 60° 5
1623830400 4.00 3.00 - 4.00 0
1623834000 5.00 4.00 - 5.00 0
1623837600 6.00 5.00 - 6.00 0
1623841200 7.00 6.00 - 7.00 0
1623844800 8.00 7.00 - 8.00 0
1623848400 9.00 8.00 - 9.00 0
1623852000 10.00 9.00 - 10.00 0
1623855600 11.00 10.00 - 11.00 80° 5
1623859200 12.00 11.00 - 12.00 80° 15
1623862800 13.00 12.00 - 13.00 130° 35 30
1623866400 14.00 13.00 - 14.00 80° 20
1623870000 15.00 14.00 - 15.00 70° 10
1623873600 16.00 15.00 - 16.00
1623877200 17.00 16.00 - 17.00 140° 15
1623880800 18.00 17.00 - 18.00 230° 5
1623884400 19.00 18.00 - 19.00 0
1623888000 20.00 19.00 - 20.00 340° 10
1623891600 21.00 20.00 - 21.00 0
1623895200 22.00 21.00 - 22.00 30° 5
1623898800 23.00 22.00 - 23.00 0
1623902400 0.00 23.00 - 0.00 360° 10
1623906000 1.00 0.00 - 1.00

Ihre Wetterstation

Fehlt Ihre Wetterstation auf unserem Portal?

Schreiben Sie an network@meteonews.ch

Klima

Wann ist es am wärmsten? Wann regnet es am wenigsten? Unsere Klimadaten geben Auskunft.